sensor_id;sensor_type;location;lat;lon;timestamp;pressure;altitude;pressure_sealevel;temperature;humidity
26807;BME280;14380;49.910;6.792;2023-02-28T00:01:03;99813.16;;;0.31;77.54
26807;BME280;14380;49.910;6.792;2023-02-28T00:03:30;99806.19;;;0.19;78.17
26807;BME280;14380;49.910;6.792;2023-02-28T00:06:00;99813.03;;;0.02;79.08
26807;BME280;14380;49.910;6.792;2023-02-28T00:08:27;99816.50;;;0.04;79.03
26807;BME280;14380;49.910;6.792;2023-02-28T00:10:55;99817.28;;;-0.11;79.39
26807;BME280;14380;49.910;6.792;2023-02-28T00:13:21;99817.25;;;-0.13;79.61
26807;BME280;14380;49.910;6.792;2023-02-28T00:15:58;99812.91;;;-0.19;80.34
26807;BME280;14380;49.910;6.792;2023-02-28T00:18:25;99812.88;;;-0.20;80.42
26807;BME280;14380;49.910;6.792;2023-02-28T00:20:52;99812.78;;;-0.37;81.02
26807;BME280;14380;49.910;6.792;2023-02-28T00:23:19;99813.72;;;-0.29;81.02
26807;BME280;14380;49.910;6.792;2023-02-28T00:25:45;99809.25;;;-0.52;81.25
26807;BME280;14380;49.910;6.792;2023-02-28T00:28:14;99813.63;;;-0.41;81.39
26807;BME280;14380;49.910;6.792;2023-02-28T00:30:40;99817.94;;;-0.47;82.02
26807;BME280;14380;49.910;6.792;2023-02-28T00:33:07;99818.84;;;-0.38;81.64
26807;BME280;14380;49.910;6.792;2023-02-28T00:35:34;99811.88;;;-0.49;81.46
26807;BME280;14380;49.910;6.792;2023-02-28T00:38:01;99818.69;;;-0.63;82.11
26807;BME280;14380;49.910;6.792;2023-02-28T00:40:27;99820.31;;;-0.76;83.07
26807;BME280;14380;49.910;6.792;2023-02-28T00:42:54;99810.06;;;-0.59;82.83
26807;BME280;14380;49.910;6.792;2023-02-28T00:45:22;99811.91;;;-0.44;82.84
26807;BME280;14380;49.910;6.792;2023-02-28T00:47:49;99814.50;;;-0.41;82.61
26807;BME280;14380;49.910;6.792;2023-02-28T00:50:16;99816.13;;;-0.60;82.70
26807;BME280;14380;49.910;6.792;2023-02-28T00:52:43;99822.28;;;-0.42;82.16
26807;BME280;14380;49.910;6.792;2023-02-28T00:55:10;99816.09;;;-0.62;82.81
26807;BME280;14380;49.910;6.792;2023-02-28T00:57:37;99821.47;;;-0.37;82.10
26807;BME280;14380;49.910;6.792;2023-02-28T01:00:05;99829.06;;;-0.62;83.87
26807;BME280;14380;49.910;6.792;2023-02-28T01:02:33;99821.34;;;-0.52;83.24
26807;BME280;14380;49.910;6.792;2023-02-28T01:05:00;99829.22;;;-0.40;82.97
26807;BME280;14380;49.910;6.792;2023-02-28T01:07:27;99825.75;;;-0.40;82.98
26807;BME280;14380;49.910;6.792;2023-02-28T01:09:54;99820.50;;;-0.48;83.29
26807;BME280;14380;49.910;6.792;2023-02-28T01:12:21;99825.81;;;-0.31;83.02
26807;BME280;14380;49.910;6.792;2023-02-28T01:14:48;99822.28;;;-0.41;83.71
26807;BME280;14380;49.910;6.792;2023-02-28T01:17:14;99816.22;;;-0.43;83.06
26807;BME280;14380;49.910;6.792;2023-02-28T01:19:43;99824.00;;;-0.48;83.87
26807;BME280;14380;49.910;6.792;2023-02-28T01:22:09;99830.84;;;-0.56;83.74
26807;BME280;14380;49.910;6.792;2023-02-28T01:24:37;99823.19;;;-0.36;82.85
26807;BME280;14380;49.910;6.792;2023-02-28T01:27:04;99824.03;;;-0.40;83.71
26807;BME280;14380;49.910;6.792;2023-02-28T01:29:30;99825.75;;;-0.42;82.88
26807;BME280;14380;49.910;6.792;2023-02-28T01:31:57;99817.88;;;-0.56;83.58
26807;BME280;14380;49.910;6.792;2023-02-28T01:34:24;99821.28;;;-0.62;84.15
26807;BME280;14380;49.910;6.792;2023-02-28T01:36:52;99824.69;;;-0.66;84.27
26807;BME280;14380;49.910;6.792;2023-02-28T01:39:19;99818.59;;;-0.72;84.41
26807;BME280;14380;49.910;6.792;2023-02-28T01:41:46;99818.63;;;-0.69;84.84
26807;BME280;14380;49.910;6.792;2023-02-28T01:47:17;99822.78;;;-0.93;84.27
26807;BME280;14380;49.910;6.792;2023-02-28T01:49:44;99807.03;;;-1.10;85.39
26807;BME280;14380;49.910;6.792;2023-02-28T01:52:14;99819.84;;;-1.29;86.80
26807;BME280;14380;49.910;6.792;2023-02-28T01:54:46;99817.41;;;-1.13;86.38
26807;BME280;14380;49.910;6.792;2023-02-28T01:57:16;99815.78;;;-0.99;85.00
26807;BME280;14380;49.910;6.792;2023-02-28T01:59:46;99815.38;;;-1.42;86.50
26807;BME280;14380;49.910;6.792;2023-02-28T02:02:16;99806.72;;;-1.44;87.40
26807;BME280;14380;49.910;6.792;2023-02-28T02:04:50;99802.59;;;-1.27;86.86
26807;BME280;14380;49.910;6.792;2023-02-28T02:07:21;99808.75;;;-1.15;85.82
26807;BME280;14380;49.910;6.792;2023-02-28T02:09:48;99800.88;;;-1.23;85.68
26807;BME280;14380;49.910;6.792;2023-02-28T02:12:33;99803.28;;;-1.45;86.21
26807;BME280;14380;49.910;6.792;2023-02-28T02:15:09;99794.66;;;-1.42;85.43
26807;BME280;14380;49.910;6.792;2023-02-28T02:17:40;99792.84;;;-1.50;87.65
26807;BME280;14380;49.910;6.792;2023-02-28T02:20:35;99793.03;;;-1.34;86.54
26807;BME280;14380;49.910;6.792;2023-02-28T02:23:27;99793.84;;;-1.40;86.64
26807;BME280;14380;49.910;6.792;2023-02-28T02:25:56;99792.88;;;-1.48;86.95
26807;BME280;14380;49.910;6.792;2023-02-28T02:28:41;99799.78;;;-1.50;88.80
26807;BME280;14380;49.910;6.792;2023-02-28T02:31:33;99798.84;;;-1.55;87.34
26807;BME280;14380;49.910;6.792;2023-02-28T02:37:17;99796.56;;;-1.24;89.62
26807;BME280;14380;49.910;6.792;2023-02-28T02:39:49;99786.16;;;-1.29;91.02
26807;BME280;14380;49.910;6.792;2023-02-28T02:42:24;99788.69;;;-1.37;90.08
26807;BME280;14380;49.910;6.792;2023-02-28T02:44:57;99789.59;;;-1.28;89.66
26807;BME280;14380;49.910;6.792;2023-02-28T02:47:28;99792.16;;;-1.31;89.78
26807;BME280;14380;49.910;6.792;2023-02-28T02:50:01;99783.53;;;-1.32;89.91
26807;BME280;14380;49.910;6.792;2023-02-28T02:52:34;99788.78;;;-1.26;92.30
26807;BME280;14380;49.910;6.792;2023-02-28T02:55:03;99791.47;;;-1.16;91.07
26807;BME280;14380;49.910;6.792;2023-02-28T02:57:36;99788.75;;;-1.29;92.16
26807;BME280;14380;49.910;6.792;2023-02-28T03:00:06;99792.13;;;-1.36;95.03
26807;BME280;14380;49.910;6.792;2023-02-28T03:02:35;99789.78;;;-1.11;96.72
26807;BME280;14380;49.910;6.792;2023-02-28T03:05:07;99788.16;;;-0.97;94.90
26807;BME280;14380;49.910;6.792;2023-02-28T03:07:35;99792.53;;;-0.88;92.82
26807;BME280;14380;49.910;6.792;2023-02-28T03:10:02;99792.28;;;-1.19;92.90
26807;BME280;14380;49.910;6.792;2023-02-28T03:12:40;99794.16;;;-1.04;96.95
26807;BME280;14380;49.910;6.792;2023-02-28T03:15:11;99796.84;;;-0.92;96.01
26807;BME280;14380;49.910;6.792;2023-02-28T03:17:59;99796.81;;;-0.95;95.39
26807;BME280;14380;49.910;6.792;2023-02-28T03:20:37;99790.78;;;-0.95;95.78
26807;BME280;14380;49.910;6.792;2023-02-28T03:23:14;99799.31;;;-1.07;98.62
26807;BME280;14380;49.910;6.792;2023-02-28T03:25:52;99800.16;;;-1.08;97.80
26807;BME280;14380;49.910;6.792;2023-02-28T03:28:28;99797.56;;;-1.08;98.83
26807;BME280;14380;49.910;6.792;2023-02-28T03:31:00;99798.47;;;-1.05;100.00
26807;BME280;14380;49.910;6.792;2023-02-28T03:33:34;99791.59;;;-1.01;100.00
26807;BME280;14380;49.910;6.792;2023-02-28T03:36:07;99785.59;;;-0.94;98.27
26807;BME280;14380;49.910;6.792;2023-02-28T03:38:40;99788.13;;;-1.01;100.00
26807;BME280;14380;49.910;6.792;2023-02-28T03:41:14;99788.16;;;-0.98;100.00
26807;BME280;14380;49.910;6.792;2023-02-28T03:43:44;99789.94;;;-0.88;100.00
26807;BME280;14380;49.910;6.792;2023-02-28T03:46:18;99799.34;;;-1.01;100.00
26807;BME280;14380;49.910;6.792;2023-02-28T03:48:51;99795.16;;;-0.86;99.58
26807;BME280;14380;49.910;6.792;2023-02-28T03:51:24;99791.72;;;-0.84;100.00
26807;BME280;14380;49.910;6.792;2023-02-28T03:53:54;99799.41;;;-0.96;100.00
26807;BME280;14380;49.910;6.792;2023-02-28T03:56:28;99802.94;;;-0.85;100.00
26807;BME280;14380;49.910;6.792;2023-02-28T03:59:01;99803.84;;;-0.81;100.00
26807;BME280;14380;49.910;6.792;2023-02-28T04:01:33;99801.94;;;-1.02;100.00
26807;BME280;14380;49.910;6.792;2023-02-28T04:04:02;99796.84;;;-0.93;100.00
26807;BME280;14380;49.910;6.792;2023-02-28T04:06:32;99803.00;;;-0.80;100.00
26807;BME280;14380;49.910;6.792;2023-02-28T04:08:59;99800.34;;;-0.86;100.00
26807;BME280;14380;49.910;6.792;2023-02-28T04:11:32;99802.88;;;-0.97;100.00
26807;BME280;14380;49.910;6.792;2023-02-28T04:14:00;99805.53;;;-0.86;100.00
26807;BME280;14380;49.910;6.792;2023-02-28T04:16:27;99808.97;;;-0.86;100.00
26807;BME280;14380;49.910;6.792;2023-02-28T04:18:54;99808.97;;;-0.86;100.00
26807;BME280;14380;49.910;6.792;2023-02-28T04:21:27;99804.78;;;-0.71;100.00
26807;BME280;14380;49.910;6.792;2023-02-28T04:23:55;99808.16;;;-0.83;100.00
26807;BME280;14380;49.910;6.792;2023-02-28T04:26:28;99800.44;;;-0.76;100.00
26807;BME280;14380;49.910;6.792;2023-02-28T04:28:55;99800.41;;;-0.79;100.00
26807;BME280;14380;49.910;6.792;2023-02-28T04:31:21;99800.19;;;-1.07;100.00
26807;BME280;14380;49.910;6.792;2023-02-28T04:33:48;99802.94;;;-0.85;100.00
26807;BME280;14380;49.910;6.792;2023-02-28T04:36:15;99800.16;;;-1.08;100.00
26807;BME280;14380;49.910;6.792;2023-02-28T04:38:43;99802.94;;;-0.86;100.00
26807;BME280;14380;49.910;6.792;2023-02-28T04:41:11;99803.72;;;-0.97;100.00
26807;BME280;14380;49.910;6.792;2023-02-28T04:43:38;99801.09;;;-1.00;100.00
26807;BME280;14380;49.910;6.792;2023-02-28T04:46:06;99795.97;;;-0.94;100.00
26807;BME280;14380;49.910;6.792;2023-02-28T04:48:33;99805.41;;;-1.03;100.00
26807;BME280;14380;49.910;6.792;2023-02-28T04:51:01;99792.44;;;-1.03;100.00
26807;BME280;14380;49.910;6.792;2023-02-28T04:53:28;99801.84;;;-1.16;100.00
26807;BME280;14380;49.910;6.792;2023-02-28T04:55:55;99801.84;;;-1.15;100.00
26807;BME280;14380;49.910;6.792;2023-02-28T04:58:25;99804.47;;;-1.09;100.00
26807;BME280;14380;49.910;6.792;2023-02-28T05:00:52;99801.00;;;-1.09;100.00
26807;BME280;14380;49.910;6.792;2023-02-28T05:03:19;99803.63;;;-1.06;100.00
26807;BME280;14380;49.910;6.792;2023-02-28T05:05:49;99801.69;;;-1.32;100.00
26807;BME280;14380;49.910;6.792;2023-02-28T05:08:17;99807.72;;;-1.35;100.00
26807;BME280;14380;49.910;6.792;2023-02-28T05:10:44;99805.41;;;-1.03;100.00
26807;BME280;14380;49.910;6.792;2023-02-28T05:13:12;99801.06;;;-1.05;100.00
26807;BME280;14380;49.910;6.792;2023-02-28T05:15:40;99802.44;;;-1.42;100.00
26807;BME280;14380;49.910;6.792;2023-02-28T05:18:08;99798.28;;;-1.25;100.00
26807;BME280;14380;49.910;6.792;2023-02-28T05:20:34;99797.38;;;-1.28;100.00
26807;BME280;14380;49.910;6.792;2023-02-28T05:23:03;99789.66;;;-1.24;100.00
26807;BME280;14380;49.910;6.792;2023-02-28T05:25:29;99795.78;;;-1.14;99.73
26807;BME280;14380;49.910;6.792;2023-02-28T05:27:56;99794.03;;;-1.20;99.98
26807;BME280;14380;49.910;6.792;2023-02-28T05:30:23;99792.31;;;-1.17;99.43
26807;BME280;14380;49.910;6.792;2023-02-28T05:32:51;99804.50;;;-1.06;98.41
26807;BME280;14380;49.910;6.792;2023-02-28T05:35:18;99800.81;;;-1.32;99.37
26807;BME280;14380;49.910;6.792;2023-02-28T05:37:45;99799.31;;;-1.04;98.33
26807;BME280;14380;49.910;6.792;2023-02-28T05:40:12;99807.81;;;-1.24;98.41
26807;BME280;14380;49.910;6.792;2023-02-28T05:42:40;99805.28;;;-1.16;98.08
26807;BME280;14380;49.910;6.792;2023-02-28T05:45:07;99808.88;;;-1.01;98.47
26807;BME280;14380;49.910;6.792;2023-02-28T05:47:35;99804.19;;;-1.38;99.37
26807;BME280;14380;49.910;6.792;2023-02-28T05:50:04;99810.41;;;-1.24;97.83
26807;BME280;14380;49.910;6.792;2023-02-28T05:52:32;99809.50;;;-1.24;97.64
26807;BME280;14380;49.910;6.792;2023-02-28T05:54:58;99803.47;;;-1.25;98.24
26807;BME280;14380;49.910;6.792;2023-02-28T05:57:25;99811.13;;;-1.39;99.09
26807;BME280;14380;49.910;6.792;2023-02-28T05:59:52;99806.00;;;-1.32;99.32
26807;BME280;14380;49.910;6.792;2023-02-28T06:02:19;99803.44;;;-1.26;97.71
26807;BME280;14380;49.910;6.792;2023-02-28T06:04:45;99805.06;;;-1.41;98.73
26807;BME280;14380;49.910;6.792;2023-02-28T06:07:14;99811.22;;;-1.28;98.29
26807;BME280;14380;49.910;6.792;2023-02-28T06:09:42;99813.72;;;-1.39;98.19
26807;BME280;14380;49.910;6.792;2023-02-28T06:12:10;99806.88;;;-1.29;98.13
26807;BME280;14380;49.910;6.792;2023-02-28T06:14:36;99815.22;;;-1.58;99.55
26807;BME280;14380;49.910;6.792;2023-02-28T06:17:04;99818.88;;;-1.39;99.04
26807;BME280;14380;49.910;6.792;2023-02-28T06:19:31;99825.63;;;-1.55;100.00
26807;BME280;14380;49.910;6.792;2023-02-28T06:21:59;99827.47;;;-1.43;98.88
26807;BME280;14380;49.910;6.792;2023-02-28T06:24:27;99828.22;;;-1.53;100.00
26807;BME280;14380;49.910;6.792;2023-02-28T06:26:55;99834.41;;;-1.42;99.58
26807;BME280;14380;49.910;6.792;2023-02-28T06:29:24;99834.28;;;-1.50;99.10
26807;BME280;14380;49.910;6.792;2023-02-28T06:31:51;99830.81;;;-1.53;99.54
26807;BME280;14380;49.910;6.792;2023-02-28T06:34:17;99839.53;;;-1.45;97.83
26807;BME280;14380;49.910;6.792;2023-02-28T06:36:44;99830.66;;;-1.67;99.64
26807;BME280;14380;49.910;6.792;2023-02-28T06:39:11;99841.09;;;-1.61;99.79
26807;BME280;14380;49.910;6.792;2023-02-28T06:41:39;99842.81;;;-1.60;99.47
26807;BME280;14380;49.910;6.792;2023-02-28T06:44:11;99843.56;;;-1.70;100.00
26807;BME280;14380;49.910;6.792;2023-02-28T06:46:39;99841.16;;;-1.52;98.44
26807;BME280;14380;49.910;6.792;2023-02-28T06:49:06;99849.81;;;-1.50;99.62
26807;BME280;14380;49.910;6.792;2023-02-28T06:51:35;99854.06;;;-1.56;98.70
26807;BME280;14380;49.910;6.792;2023-02-28T06:54:02;99855.00;;;-1.50;98.82
26807;BME280;14380;49.910;6.792;2023-02-28T06:56:29;99861.81;;;-1.61;98.31
26807;BME280;14380;49.910;6.792;2023-02-28T06:58:59;99863.69;;;-1.46;98.30
26807;BME280;14380;49.910;6.792;2023-02-28T07:01:26;99861.72;;;-1.67;99.53
26807;BME280;14380;49.910;6.792;2023-02-28T07:03:53;99861.72;;;-1.66;99.34
26807;BME280;14380;49.910;6.792;2023-02-28T07:06:21;99864.69;;;-1.35;98.06
26807;BME280;14380;49.910;6.792;2023-02-28T07:08:49;99859.41;;;-1.42;97.69
26807;BME280;14380;49.910;6.792;2023-02-28T07:11:16;99854.13;;;-1.52;98.58
26807;BME280;14380;49.910;6.792;2023-02-28T07:13:42;99861.16;;;-1.41;98.29
26807;BME280;14380;49.910;6.792;2023-02-28T07:16:11;99861.88;;;-1.53;98.72
26807;BME280;14380;49.910;6.792;2023-02-28T07:18:38;99864.56;;;-1.45;97.59
26807;BME280;14380;49.910;6.792;2023-02-28T07:21:07;99867.31;;;-1.30;97.37
26807;BME280;14380;49.910;6.792;2023-02-28T07:23:35;99865.59;;;-1.31;96.59
26807;BME280;14380;49.910;6.792;2023-02-28T07:26:03;99856.75;;;-1.48;96.87
26807;BME280;14380;49.910;6.792;2023-02-28T07:28:30;99864.75;;;-1.30;96.33
26807;BME280;14380;49.910;6.792;2023-02-28T07:30:57;99863.84;;;-1.32;96.41
26807;BME280;14380;49.910;6.792;2023-02-28T07:33:25;99861.25;;;-1.33;97.06
26807;BME280;14380;49.910;6.792;2023-02-28T07:35:52;99866.44;;;-1.30;96.14
26807;BME280;14380;49.910;6.792;2023-02-28T07:38:19;99863.81;;;-1.35;97.01
26807;BME280;14380;49.910;6.792;2023-02-28T07:40:45;99858.00;;;-1.14;96.26
26807;BME280;14380;49.910;6.792;2023-02-28T07:43:12;99868.22;;;-1.28;95.30
26807;BME280;14380;49.910;6.792;2023-02-28T07:45:39;99861.44;;;-1.15;95.43
26807;BME280;14380;49.910;6.792;2023-02-28T07:48:06;99867.41;;;-1.24;95.62
26807;BME280;14380;49.910;6.792;2023-02-28T07:50:36;99862.22;;;-1.22;95.82
26807;BME280;14380;49.910;6.792;2023-02-28T07:53:03;99864.13;;;-1.04;94.76
26807;BME280;14380;49.910;6.792;2023-02-28T07:55:30;99871.94;;;-1.02;94.19
26807;BME280;14380;49.910;6.792;2023-02-28T07:57:57;99864.97;;;-1.05;94.74
26807;BME280;14380;49.910;6.792;2023-02-28T08:00:25;99865.72;;;-1.17;94.87
26807;BME280;14380;49.910;6.792;2023-02-28T08:02:51;99853.06;;;-0.89;94.26
26807;BME280;14380;49.910;6.792;2023-02-28T08:05:18;99865.06;;;-0.96;94.42
26807;BME280;14380;49.910;6.792;2023-02-28T08:07:48;99859.00;;;-0.99;94.11
26807;BME280;14380;49.910;6.792;2023-02-28T08:10:15;99861.75;;;-0.82;93.63
26807;BME280;14380;49.910;6.792;2023-02-28T08:12:42;99859.25;;;-0.73;92.93
26807;BME280;14380;49.910;6.792;2023-02-28T08:15:09;99860.72;;;-1.01;93.51
26807;BME280;14380;49.910;6.792;2023-02-28T08:17:36;99869.53;;;-0.81;92.49
26807;BME280;14380;49.910;6.792;2023-02-28T08:20:03;99860.84;;;-0.86;92.22
26807;BME280;14380;49.910;6.792;2023-02-28T08:22:30;99861.91;;;-0.67;91.06
26807;BME280;14380;49.910;6.792;2023-02-28T08:24:58;99865.59;;;-0.34;91.36
26807;BME280;14380;49.910;6.792;2023-02-28T08:27:25;99861.09;;;-0.56;91.08
26807;BME280;14380;49.910;6.792;2023-02-28T08:29:52;99866.38;;;-0.44;89.90
26807;BME280;14380;49.910;6.792;2023-02-28T08:32:19;99848.38;;;-0.19;88.54
26807;BME280;14380;49.910;6.792;2023-02-28T08:34:45;99851.78;;;-0.28;88.08
26807;BME280;14380;49.910;6.792;2023-02-28T08:37:12;99846.75;;;-0.06;87.36
26807;BME280;14380;49.910;6.792;2023-02-28T08:39:39;99859.75;;;0.02;86.74
26807;BME280;14380;49.910;6.792;2023-02-28T08:42:07;99846.78;;;0.00;87.11
26807;BME280;14380;49.910;6.792;2023-02-28T08:44:34;99848.56;;;0.13;85.59
26807;BME280;14380;49.910;6.792;2023-02-28T08:47:01;99843.38;;;0.12;83.90
26807;BME280;14380;49.910;6.792;2023-02-28T08:49:28;99844.38;;;0.48;84.28
26807;BME280;14380;49.910;6.792;2023-02-28T08:51:55;99852.09;;;0.28;83.89
26807;BME280;14380;49.910;6.792;2023-02-28T08:54:22;99852.06;;;0.17;83.89
26807;BME280;14380;49.910;6.792;2023-02-28T08:56:49;99852.94;;;0.28;82.46
26807;BME280;14380;49.910;6.792;2023-02-28T08:59:17;99852.91;;;0.16;82.71
26807;BME280;14380;49.910;6.792;2023-02-28T09:01:44;99856.38;;;0.24;82.08
26807;BME280;14380;49.910;6.792;2023-02-28T09:04:11;99853.03;;;0.44;81.77
26807;BME280;14380;49.910;6.792;2023-02-28T09:06:38;99857.34;;;0.37;81.94
26807;BME280;14380;49.910;6.792;2023-02-28T09:09:05;99862.44;;;0.23;80.89
26807;BME280;14380;49.910;6.792;2023-02-28T09:11:33;99847.88;;;0.56;80.20
26807;BME280;14380;49.910;6.792;2023-02-28T09:14:01;99849.56;;;0.43;79.94
26807;BME280;14380;49.910;6.792;2023-02-28T09:16:30;99846.97;;;0.48;79.38
26807;BME280;14380;49.910;6.792;2023-02-28T09:18:57;99851.31;;;0.49;78.54
26807;BME280;14380;49.910;6.792;2023-02-28T09:21:25;99848.75;;;0.63;77.55
26807;BME280;14380;49.910;6.792;2023-02-28T09:23:52;99845.34;;;0.80;76.83
26807;BME280;14380;49.910;6.792;2023-02-28T09:26:20;99834.94;;;0.92;74.88
26807;BME280;14380;49.910;6.792;2023-02-28T09:28:48;99841.00;;;0.91;74.50
26807;BME280;14380;49.910;6.792;2023-02-28T09:31:17;99834.13;;;1.18;73.29
26807;BME280;14380;49.910;6.792;2023-02-28T09:33:47;99837.59;;;1.17;71.81
26807;BME280;14380;49.910;6.792;2023-02-28T09:36:14;99841.03;;;1.34;73.14
26807;BME280;14380;49.910;6.792;2023-02-28T09:38:41;99839.28;;;1.06;70.96
26807;BME280;14380;49.910;6.792;2023-02-28T09:41:13;99841.91;;;1.29;71.36
26807;BME280;14380;49.910;6.792;2023-02-28T09:43:44;99847.97;;;1.18;69.46
26807;BME280;14380;49.910;6.792;2023-02-28T09:46:21;99843.66;;;1.28;69.99
26807;BME280;14380;49.910;6.792;2023-02-28T09:48:52;99847.97;;;1.01;68.88
26807;BME280;14380;49.910;6.792;2023-02-28T09:51:30;99830.63;;;1.24;69.59
26807;BME280;14380;49.910;6.792;2023-02-28T09:53:59;99842.78;;;1.46;70.89
26807;BME280;14380;49.910;6.792;2023-02-28T09:56:31;99830.63;;;1.34;68.51
26807;BME280;14380;49.910;6.792;2023-02-28T09:59:02;99841.03;;;1.47;68.72
26807;BME280;14380;49.910;6.792;2023-02-28T10:01:37;99841.03;;;1.41;68.77
26807;BME280;14380;49.910;6.792;2023-02-28T10:04:12;99844.53;;;1.24;68.97
26807;BME280;14380;49.910;6.792;2023-02-28T10:06:46;99841.91;;;1.21;68.61
26807;BME280;14380;49.910;6.792;2023-02-28T10:09:17;99834.94;;;1.56;67.72
26807;BME280;14380;49.910;6.792;2023-02-28T10:11:48;99836.72;;;1.54;69.50
26807;BME280;14380;49.910;6.792;2023-02-28T10:14:18;99836.69;;;1.63;68.54
26807;BME280;14380;49.910;6.792;2023-02-28T10:16:48;99839.25;;;1.86;69.97
26807;BME280;14380;49.910;6.792;2023-02-28T10:19:22;99847.03;;;2.05;68.39
26807;BME280;14380;49.910;6.792;2023-02-28T10:21:56;99834.84;;;2.08;68.40
26807;BME280;14380;49.910;6.792;2023-02-28T10:24:28;99824.91;;;2.87;67.16
26807;BME280;14380;49.910;6.792;2023-02-28T10:27:00;99829.31;;;2.75;66.27
26807;BME280;14380;49.910;6.792;2023-02-28T10:29:31;99827.75;;;2.49;67.17
26807;BME280;14380;49.910;6.792;2023-02-28T10:32:01;99822.44;;;2.63;66.60
26807;BME280;14380;49.910;6.792;2023-02-28T10:34:31;99815.41;;;2.78;67.63
26807;BME280;14380;49.910;6.792;2023-02-28T10:36:58;99823.03;;;3.09;66.68
26807;BME280;14380;49.910;6.792;2023-02-28T10:39:36;99823.06;;;3.04;66.27
26807;BME280;14380;49.910;6.792;2023-02-28T10:42:04;99823.16;;;2.92;66.44
26807;BME280;14380;49.910;6.792;2023-02-28T10:44:31;99815.19;;;3.12;66.56
26807;BME280;14380;49.910;6.792;2023-02-28T10:46:59;99809.22;;;2.93;66.73
26807;BME280;14380;49.910;6.792;2023-02-28T10:49:27;99811.03;;;2.86;67.06
26807;BME280;14380;49.910;6.792;2023-02-28T10:51:57;99805.88;;;2.72;66.19
26807;BME280;14380;49.910;6.792;2023-02-28T10:54:29;99817.13;;;2.85;66.88
26807;BME280;14380;49.910;6.792;2023-02-28T10:57:09;99802.22;;;3.01;66.12
26807;BME280;14380;49.910;6.792;2023-02-28T10:59:41;99798.72;;;3.01;65.69
26807;BME280;14380;49.910;6.792;2023-02-28T11:02:30;99802.25;;;2.98;65.57
26807;BME280;14380;49.910;6.792;2023-02-28T11:04:57;99796.97;;;3.06;66.90
26807;BME280;14380;49.910;6.792;2023-02-28T11:07:26;99806.53;;;3.04;64.61
26807;BME280;14380;49.910;6.792;2023-02-28T11:09:54;99796.16;;;2.94;64.52
26807;BME280;14380;49.910;6.792;2023-02-28T11:12:23;99800.53;;;2.92;63.41
26807;BME280;14380;49.910;6.792;2023-02-28T11:14:53;99796.06;;;3.10;62.70
26807;BME280;14380;49.910;6.792;2023-02-28T11:17:23;99797.88;;;3.00;61.76
26807;BME280;14380;49.910;6.792;2023-02-28T11:19:52;99800.25;;;3.28;61.41
26807;BME280;14380;49.910;6.792;2023-02-28T11:22:22;99793.47;;;3.07;61.77
26807;BME280;14380;49.910;6.792;2023-02-28T11:24:53;99787.94;;;3.44;61.45
26807;BME280;14380;49.910;6.792;2023-02-28T11:27:26;99791.16;;;3.71;61.81
26807;BME280;14380;49.910;6.792;2023-02-28T11:30:23;99772.78;;;3.77;61.63
26807;BME280;14380;49.910;6.792;2023-02-28T11:32:50;99793.19;;;3.42;62.05
26807;BME280;14380;49.910;6.792;2023-02-28T11:35:23;99787.88;;;3.52;61.57
26807;BME280;14380;49.910;6.792;2023-02-28T11:37:51;99780.03;;;3.52;61.71
26807;BME280;14380;49.910;6.792;2023-02-28T11:40:25;99784.28;;;3.59;63.02
26807;BME280;14380;49.910;6.792;2023-02-28T11:42:57;99787.72;;;3.66;62.40
26807;BME280;14380;49.910;6.792;2023-02-28T11:45:48;99779.75;;;3.78;61.43
26807;BME280;14380;49.910;6.792;2023-02-28T11:48:20;99769.50;;;3.58;61.22
26807;BME280;14380;49.910;6.792;2023-02-28T11:50:58;99784.91;;;3.86;61.77
26807;BME280;14380;49.910;6.792;2023-02-28T11:53:49;99783.06;;;3.93;60.90
26807;BME280;14380;49.910;6.792;2023-02-28T11:56:24;99761.13;;;4.08;62.42
26807;BME280;14380;49.910;6.792;2023-02-28T11:59:04;99769.06;;;3.98;62.83
26807;BME280;14380;49.910;6.792;2023-02-28T12:01:50;99759.34;;;4.10;60.47
26807;BME280;14380;49.910;6.792;2023-02-28T12:04:30;99766.41;;;4.03;58.95
26807;BME280;14380;49.910;6.792;2023-02-28T12:07:07;99762.94;;;3.99;60.31
26807;BME280;14380;49.910;6.792;2023-02-28T12:09:45;99776.16;;;3.90;60.92
26807;BME280;14380;49.910;6.792;2023-02-28T12:12:23;99774.25;;;4.01;61.02
26807;BME280;14380;49.910;6.792;2023-02-28T12:15:16;99775.19;;;3.97;60.62
26807;BME280;14380;49.910;6.792;2023-02-28T12:17:52;99763.09;;;3.89;60.34
26807;BME280;14380;49.910;6.792;2023-02-28T12:20:27;99773.41;;;3.99;60.31
26807;BME280;14380;49.910;6.792;2023-02-28T12:25:52;99751.44;;;4.18;59.07
26807;BME280;14380;49.910;6.792;2023-02-28T12:28:27;99754.22;;;4.66;59.46
26807;BME280;14380;49.910;6.792;2023-02-28T12:30:59;99748.06;;;4.70;59.59
26807;BME280;14380;49.910;6.792;2023-02-28T12:33:32;99751.94;;;4.44;58.98
26807;BME280;14380;49.910;6.792;2023-02-28T12:36:05;99755.78;;;4.17;59.28
26807;BME280;14380;49.910;6.792;2023-02-28T12:38:39;99748.47;;;4.42;59.12
26807;BME280;14380;49.910;6.792;2023-02-28T12:41:10;99753.00;;;4.29;59.41
26807;BME280;14380;49.910;6.792;2023-02-28T12:43:44;99747.59;;;4.43;58.61
26807;BME280;14380;49.910;6.792;2023-02-28T12:46:15;99751.47;;;4.14;58.54
26807;BME280;14380;49.910;6.792;2023-02-28T12:48:47;99739.50;;;4.60;58.93
26807;BME280;14380;49.910;6.792;2023-02-28T12:51:16;99743.00;;;4.61;58.50
26807;BME280;14380;49.910;6.792;2023-02-28T12:53:52;99740.91;;;4.82;58.65
26807;BME280;14380;49.910;6.792;2023-02-28T12:56:30;99743.47;;;4.85;58.04
26807;BME280;14380;49.910;6.792;2023-02-28T12:59:05;99732.19;;;4.83;57.30
26807;BME280;14380;49.910;6.792;2023-02-28T13:01:55;99733.59;;;4.46;56.76
26807;BME280;14380;49.910;6.792;2023-02-28T13:04:52;99734.50;;;4.43;57.21
26807;BME280;14380;49.910;6.792;2023-02-28T13:07:53;99731.78;;;4.51;56.81
26807;BME280;14380;49.910;6.792;2023-02-28T13:10:37;99732.88;;;4.93;56.60
26807;BME280;14380;49.910;6.792;2023-02-28T13:13:05;99732.84;;;4.96;56.39
26807;BME280;14380;49.910;6.792;2023-02-28T13:15:33;99734.41;;;5.06;56.95
26807;BME280;14380;49.910;6.792;2023-02-28T13:18:27;99730.84;;;5.10;56.79
26807;BME280;14380;49.910;6.792;2023-02-28T13:20:55;99722.91;;;4.63;56.45
26807;BME280;14380;49.910;6.792;2023-02-28T13:23:40;99741.41;;;4.49;57.12
26807;BME280;14380;49.910;6.792;2023-02-28T13:26:07;99737.13;;;5.01;57.28
26807;BME280;14380;49.910;6.792;2023-02-28T13:29:21;99739.69;;;5.04;57.11